Lakeville, Minnesota
Current Conditions -  °F | °C
As of 4:48 AM on Wednesday 22 Oct 2014 (Local Time) from KLVN Reporting Station
Clear Clear  
Wind Chill: 33°   Ceiling: Unl
Heat Index: 37°   Visibility: 10mi
Dew Point: 36°   Wind: 6mph
Humidity: 93%   Direction: 140°SE
Pressure: 30.2"   Gusts: NA
Location:  44.66°N, 93.24°W
Report Text: KLVN 220948Z AUTO 14005KT 10SM CLR 03/02 A3020 RMK AO2
Loading
Personal Weather Stations






























Interactive Weather Map
Tropical Storm Tracking
New forecast layout! Learn more

10-Day Weather Forecast

Advertisements
Track Severe Weather on mobile